createdAt,value
2023-04-21T00:00:10.882Z,98341.70
2023-04-21T00:03:00.438Z,98339.55
2023-04-21T00:05:30.068Z,98340.21
2023-04-21T00:07:59.514Z,98335.45
2023-04-21T00:10:28.463Z,98339.38
2023-04-21T00:12:57.207Z,98341.28
2023-04-21T00:15:26.482Z,98341.21
2023-04-21T00:17:56.468Z,98343.42
2023-04-21T00:20:29.503Z,98333.77
2023-04-21T00:22:58.978Z,98332.64
2023-04-21T00:25:28.383Z,98327.59
2023-04-21T00:27:57.454Z,98324.19
2023-04-21T00:30:27.178Z,98319.80
2023-04-21T00:32:56.530Z,98323.02
2023-04-21T00:35:26.351Z,98323.81
2023-04-21T00:37:55.354Z,98318.39
2023-04-21T00:40:24.429Z,98319.30
2023-04-21T00:42:53.573Z,98320.31
2023-04-21T00:45:22.670Z,98320.06
2023-04-21T00:47:52.769Z,98317.80
2023-04-21T00:50:22.501Z,98314.52
2023-04-21T00:52:52.043Z,98314.63
2023-04-21T00:55:22.078Z,98317.21
2023-04-21T00:57:52.623Z,98316.08
2023-04-21T01:00:21.973Z,98316.14
2023-04-21T01:02:51.792Z,98316.05
2023-04-21T01:05:21.401Z,98313.70
2023-04-21T01:07:50.895Z,98317.01
2023-04-21T01:10:20.212Z,98314.95
2023-04-21T01:12:49.597Z,98318.34
2023-04-21T01:15:19.038Z,98319.83
2023-04-21T01:17:50.474Z,98323.09
2023-04-21T01:20:20.047Z,98324.88
2023-04-21T01:22:50.208Z,98325.95
2023-04-21T01:25:23.047Z,98324.27
2023-04-21T01:27:53.037Z,98326.13
2023-04-21T01:30:22.706Z,98322.23
2023-04-21T01:32:52.281Z,98324.56
2023-04-21T01:35:22.009Z,98326.23
2023-04-21T01:37:52.310Z,98331.14
2023-04-21T01:40:21.866Z,98333.27
2023-04-21T01:42:52.112Z,98334.23
2023-04-21T01:45:21.175Z,98337.63
2023-04-21T01:47:50.234Z,98338.28
2023-04-21T01:50:19.625Z,98334.48
2023-04-21T01:52:49.602Z,98335.83
2023-04-21T01:55:19.400Z,98338.38
2023-04-21T01:57:48.365Z,98332.44
2023-04-21T02:00:17.678Z,98329.42
2023-04-21T02:02:46.891Z,98327.08
2023-04-21T02:05:16.403Z,98330.91
2023-04-21T02:07:46.014Z,98329.68
2023-04-21T02:10:14.851Z,98328.98
2023-04-21T02:12:43.911Z,98329.70
2023-04-21T02:15:13.142Z,98329.02
2023-04-21T02:17:43.402Z,98329.52
2023-04-21T02:20:13.140Z,98328.08
2023-04-21T02:22:42.517Z,98327.23
2023-04-21T02:25:11.826Z,98323.88
2023-04-21T02:27:40.795Z,98322.15
2023-04-21T02:30:10.272Z,98327.02
2023-04-21T02:32:39.766Z,98326.49
2023-04-21T02:35:09.210Z,98324.19
2023-04-21T02:37:38.225Z,98325.94
2023-04-21T02:40:08.086Z,98323.42
2023-04-21T02:42:36.664Z,98321.59
2023-04-21T02:45:05.885Z,98323.99
2023-04-21T02:47:34.449Z,98322.15
2023-04-21T02:50:04.606Z,98326.39
2023-04-21T02:52:37.913Z,98321.66
2023-04-21T02:55:07.189Z,98324.88
2023-04-21T02:57:36.196Z,98326.77
2023-04-21T03:00:07.754Z,98324.31
2023-04-21T03:02:36.706Z,98325.61
2023-04-21T03:05:07.078Z,98319.67
2023-04-21T03:07:36.652Z,98322.41
2023-04-21T03:10:07.093Z,98319.91
2023-04-21T03:12:36.430Z,98319.23
2023-04-21T03:15:06.032Z,98320.50
2023-04-21T03:17:35.253Z,98318.94
2023-04-21T03:20:07.379Z,98313.30
2023-04-21T03:22:36.974Z,98312.48
2023-04-21T03:25:08.017Z,98316.43
2023-04-21T03:27:37.157Z,98317.59
2023-04-21T03:30:07.475Z,98318.58
2023-04-21T03:32:36.448Z,98318.38
2023-04-21T03:35:05.809Z,98314.96
2023-04-21T03:37:34.756Z,98316.15
2023-04-21T03:40:06.571Z,98316.09
2023-04-21T03:42:36.707Z,98314.50
2023-04-21T03:45:07.251Z,98317.70
2023-04-21T03:47:36.958Z,98313.58
2023-04-21T03:50:06.870Z,98320.45
2023-04-21T03:52:36.008Z,98323.35
2023-04-21T03:55:05.666Z,98327.67
2023-04-21T03:57:35.094Z,98327.87
2023-04-21T04:00:05.849Z,98331.70
2023-04-21T04:02:35.358Z,98331.52
2023-04-21T04:05:05.960Z,98331.44
2023-04-21T04:07:35.933Z,98331.39
2023-04-21T04:10:05.368Z,98336.58
2023-04-21T04:12:35.045Z,98330.73
2023-04-21T04:15:04.406Z,98334.25
2023-04-21T04:17:33.422Z,98334.88
2023-04-21T04:20:05.217Z,98339.02
2023-04-21T04:22:36.393Z,98341.29
2023-04-21T04:25:05.888Z,98342.31
2023-04-21T04:27:35.401Z,98345.20
2023-04-21T04:30:06.579Z,98346.70
2023-04-21T04:32:36.382Z,98349.61
2023-04-21T04:35:07.414Z,98354.27
2023-04-21T04:37:38.228Z,98356.40
2023-04-21T04:40:10.704Z,98356.05
2023-04-21T04:42:43.138Z,98358.60
2023-04-21T04:45:12.271Z,98361.34
2023-04-21T04:47:41.814Z,98361.28
2023-04-21T04:50:11.525Z,98360.86
2023-04-21T04:52:41.079Z,98362.72
2023-04-21T04:55:10.302Z,98364.45
2023-04-21T04:57:39.827Z,98368.98
2023-04-21T05:00:11.907Z,98366.30
2023-04-21T05:02:42.353Z,98368.92
2023-04-21T05:05:11.929Z,98369.79
2023-04-21T05:07:41.784Z,98370.95
2023-04-21T05:10:11.077Z,98373.19
2023-04-21T05:12:40.280Z,98378.50
2023-04-21T05:15:10.093Z,98379.29
2023-04-21T05:17:39.583Z,98376.70
2023-04-21T05:20:11.705Z,98378.48
2023-04-21T05:22:41.708Z,98376.44
2023-04-21T05:25:21.040Z,98377.89
2023-04-21T05:27:51.034Z,98380.84
2023-04-21T05:30:20.548Z,98385.05
2023-04-21T05:32:49.864Z,98390.27
2023-04-21T05:35:20.794Z,98391.89
2023-04-21T05:37:50.097Z,98398.09
2023-04-21T05:40:19.768Z,98398.63
2023-04-21T05:42:49.871Z,98401.29
2023-04-21T05:45:18.894Z,98404.77
2023-04-21T05:47:48.092Z,98405.16
2023-04-21T05:50:17.639Z,98411.16
2023-04-21T05:52:47.452Z,98408.10
2023-04-21T05:55:16.405Z,98406.80
2023-04-21T05:57:45.673Z,98399.39
2023-04-21T06:00:15.567Z,98402.39
2023-04-21T06:02:45.885Z,98400.38
2023-04-21T06:05:15.902Z,98403.08
2023-04-21T06:07:45.446Z,98402.85
2023-04-21T06:10:16.386Z,98398.67
2023-04-21T06:12:46.365Z,98396.16
2023-04-21T06:15:17.005Z,98399.05
2023-04-21T06:17:47.249Z,98396.78
2023-04-21T06:20:18.442Z,98397.48
2023-04-21T06:22:48.304Z,98400.40
2023-04-21T06:25:18.162Z,98402.92
2023-04-21T06:27:49.118Z,98409.88
2023-04-21T06:30:19.024Z,98408.83
2023-04-21T06:32:49.974Z,98412.61
2023-04-21T06:35:21.170Z,98408.75
2023-04-21T06:37:58.807Z,98407.89
2023-04-21T06:40:29.259Z,98407.02
2023-04-21T06:42:59.865Z,98404.64
2023-04-21T06:45:30.435Z,98406.23
2023-04-21T06:48:00.487Z,98405.70
2023-04-21T06:50:30.272Z,98402.52
2023-04-21T06:52:59.976Z,98407.92
2023-04-21T06:55:31.377Z,98402.23
2023-04-21T06:58:02.595Z,98405.38
2023-04-21T07:00:33.653Z,98403.59
2023-04-21T07:03:06.588Z,98402.79
2023-04-21T07:05:39.366Z,98407.20
2023-04-21T07:08:10.148Z,98401.36
2023-04-21T07:10:40.579Z,98403.80
2023-04-21T07:13:10.543Z,98402.21
2023-04-21T07:15:41.517Z,98403.45
2023-04-21T07:18:11.441Z,98399.13
2023-04-21T07:20:41.446Z,98392.34
2023-04-21T07:23:11.643Z,98393.58
2023-04-21T07:25:41.819Z,98392.88
2023-04-21T07:28:11.710Z,98389.66
2023-04-21T07:30:41.902Z,98396.23
2023-04-21T07:33:11.214Z,98397.08
2023-04-21T07:35:41.162Z,98393.92
2023-04-21T07:38:10.738Z,98392.52
2023-04-21T07:40:40.948Z,98389.11
2023-04-21T07:43:13.202Z,98389.90
2023-04-21T07:45:42.469Z,98391.23
2023-04-21T07:48:13.664Z,98389.20
2023-04-21T07:50:44.038Z,98389.27
2023-04-21T07:53:13.904Z,98393.64
2023-04-21T07:55:43.502Z,98396.51
2023-04-21T07:58:14.728Z,98397.02
2023-04-21T08:00:45.409Z,98390.73
2023-04-21T08:03:18.681Z,98388.02
2023-04-21T08:05:50.916Z,98385.30
2023-04-21T08:08:22.452Z,98382.28
2023-04-21T08:10:51.942Z,98383.73
2023-04-21T08:13:26.765Z,98384.24
2023-04-21T08:15:56.760Z,98382.58
2023-04-21T08:18:26.946Z,98381.54
2023-04-21T08:21:00.877Z,98379.04
2023-04-21T08:23:34.380Z,98374.45
2023-04-21T08:26:04.738Z,98376.38
2023-04-21T08:28:35.352Z,98375.77
2023-04-21T08:31:05.860Z,98376.98
2023-04-21T08:33:37.695Z,98375.06
2023-04-21T08:36:18.140Z,98376.52
2023-04-21T08:38:56.143Z,98374.80
2023-04-21T08:41:27.151Z,98369.34
2023-04-21T08:43:56.879Z,98368.72
2023-04-21T08:46:28.631Z,98367.17
2023-04-21T08:48:59.546Z,98368.92
2023-04-21T08:51:31.042Z,98364.77
2023-04-21T08:53:59.851Z,98361.00
2023-04-21T08:56:29.452Z,98362.36
2023-04-21T08:58:59.154Z,98355.20
2023-04-21T09:01:29.529Z,98358.71
2023-04-21T09:04:20.315Z,98354.50
2023-04-21T09:06:51.350Z,98351.77
2023-04-21T09:09:21.876Z,98352.55
2023-04-21T09:12:00.054Z,98352.59
2023-04-21T09:14:33.694Z,98356.67
2023-04-21T09:17:05.014Z,98354.96
2023-04-21T09:19:35.249Z,98352.48
2023-04-21T09:22:04.693Z,98352.32
2023-04-21T09:24:34.362Z,98354.30
2023-04-21T09:27:06.297Z,98353.03
2023-04-21T09:29:36.777Z,98348.81
2023-04-21T09:32:08.565Z,98348.60
2023-04-21T09:34:44.336Z,98348.59
2023-04-21T09:37:18.594Z,98348.76
2023-04-21T09:40:00.909Z,98347.52
2023-04-21T09:42:38.876Z,98345.04
2023-04-21T09:47:54.929Z,98341.44
2023-04-21T09:50:51.232Z,98340.43
2023-04-21T09:53:17.804Z,98343.82
2023-04-21T09:55:50.970Z,98347.86
2023-04-21T09:58:25.798Z,98345.98
2023-04-21T10:00:58.327Z,98348.59
2023-04-21T10:03:30.849Z,98341.06
2023-04-21T10:06:02.171Z,98341.60
2023-04-21T10:08:33.043Z,98339.20
2023-04-21T10:11:03.456Z,98340.58
2023-04-21T10:13:33.910Z,98341.46
2023-04-21T10:16:05.249Z,98338.59
2023-04-21T10:18:54.446Z,98339.05
2023-04-21T10:21:25.036Z,98333.75
2023-04-21T10:23:54.937Z,98330.48
2023-04-21T10:26:34.153Z,98329.52
2023-04-21T10:29:10.092Z,98325.90
2023-04-21T10:31:53.313Z,98325.30
2023-04-21T10:34:39.014Z,98323.60
2023-04-21T10:37:12.333Z,98322.00
2023-04-21T10:39:48.758Z,98322.30
2023-04-21T10:42:18.237Z,98322.06
2023-04-21T10:45:00.174Z,98323.73
2023-04-21T10:47:35.379Z,98321.19
2023-04-21T10:50:30.321Z,98319.35
2023-04-21T10:53:13.800Z,98310.23
2023-04-21T10:55:49.998Z,98306.27
2023-04-21T10:58:20.613Z,98305.41
2023-04-21T11:00:56.649Z,98304.65
2023-04-21T11:03:26.330Z,98299.84
2023-04-21T11:05:56.437Z,98300.55
2023-04-21T11:08:25.809Z,98304.48
2023-04-21T11:10:57.736Z,98298.75
2023-04-21T11:13:35.342Z,98296.73
2023-04-21T11:16:08.966Z,98289.61
2023-04-21T11:18:40.630Z,98285.04
2023-04-21T11:21:21.492Z,98280.94
2023-04-21T11:24:00.114Z,98281.81
2023-04-21T11:26:39.138Z,98283.23
2023-04-21T11:29:12.124Z,98276.07
2023-04-21T11:31:47.550Z,98272.95
2023-04-21T11:34:21.945Z,98274.23
2023-04-21T11:36:56.363Z,98272.43
2023-04-21T11:39:27.084Z,98272.18
2023-04-21T11:41:59.868Z,98268.39
2023-04-21T11:44:42.981Z,98269.79
2023-04-21T11:47:25.555Z,98266.27
2023-04-21T11:50:02.377Z,98262.68
2023-04-21T11:52:37.780Z,98263.23
2023-04-21T11:55:19.711Z,98261.85
2023-04-21T11:57:52.051Z,98255.52
2023-04-21T12:00:23.092Z,98258.42
2023-04-21T12:02:58.243Z,98260.34
2023-04-21T12:05:40.686Z,98261.31
2023-04-21T12:08:17.320Z,98263.56
2023-04-21T12:10:53.901Z,98270.42
2023-04-21T12:13:25.973Z,98273.34
2023-04-21T12:15:56.350Z,98268.52
2023-04-21T12:18:31.794Z,98270.02
2023-04-21T12:21:04.510Z,98271.64
2023-04-21T12:23:35.242Z,98269.82
2023-04-21T12:26:06.221Z,98267.41
2023-04-21T12:28:38.500Z,98262.28
2023-04-21T12:31:09.192Z,98265.48
2023-04-21T12:33:38.876Z,98262.22
2023-04-21T12:36:09.550Z,98259.06
2023-04-21T12:38:40.688Z,98254.48
2023-04-21T12:41:10.468Z,98260.31
2023-04-21T12:43:40.106Z,98257.77
2023-04-21T12:46:10.643Z,98257.94
2023-04-21T12:48:40.007Z,98253.27
2023-04-21T12:51:09.058Z,98251.59
2023-04-21T12:53:39.104Z,98252.09
2023-04-21T12:56:09.191Z,98249.84
2023-04-21T12:58:41.767Z,98245.83
2023-04-21T13:01:15.151Z,98246.48
2023-04-21T13:03:47.132Z,98242.59
2023-04-21T13:06:20.433Z,98243.73
2023-04-21T13:08:54.042Z,98243.14
2023-04-21T13:11:27.470Z,98237.74
2023-04-21T13:13:59.625Z,98236.33
2023-04-21T13:16:32.116Z,98230.89
2023-04-21T13:19:02.707Z,98228.30
2023-04-21T13:21:33.229Z,98228.23
2023-04-21T13:24:03.402Z,98227.47
2023-04-21T13:26:36.787Z,98226.08
2023-04-21T13:29:06.272Z,98228.70
2023-04-21T13:31:35.801Z,98228.33
2023-04-21T13:34:04.659Z,98228.63
2023-04-21T13:36:33.903Z,98231.77
2023-04-21T13:39:04.819Z,98231.23
2023-04-21T13:41:34.458Z,98228.39
2023-04-21T13:44:06.212Z,98225.99
2023-04-21T13:46:37.235Z,98224.39
2023-04-21T13:49:07.218Z,98226.83
2023-04-21T13:51:37.753Z,98227.38
2023-04-21T13:54:07.484Z,98233.33
2023-04-21T13:56:37.322Z,98232.03
2023-04-21T13:59:06.913Z,98229.48
2023-04-21T14:01:36.861Z,98227.15
2023-04-21T14:04:09.214Z,98226.42
2023-04-21T14:06:41.384Z,98226.95
2023-04-21T14:09:11.529Z,98223.36
2023-04-21T14:11:41.592Z,98220.55
2023-04-21T14:14:11.549Z,98225.62
2023-04-21T14:16:41.941Z,98227.29
2023-04-21T14:19:11.614Z,98232.36
2023-04-21T14:21:42.326Z,98231.20
2023-04-21T14:24:12.208Z,98233.31
2023-04-21T14:26:42.550Z,98234.16
2023-04-21T14:29:14.088Z,98234.48
2023-04-21T14:31:44.270Z,98233.92
2023-04-21T14:34:13.936Z,98233.20
2023-04-21T14:36:43.823Z,98235.63
2023-04-21T14:39:16.374Z,98238.56
2023-04-21T14:41:46.588Z,98240.24
2023-04-21T14:44:19.434Z,98238.63
2023-04-21T14:46:57.403Z,98237.53
2023-04-21T14:49:35.674Z,98239.73
2023-04-21T14:52:06.665Z,98238.48
2023-04-21T14:54:36.775Z,98234.57
2023-04-21T14:57:19.545Z,98233.73
2023-04-21T14:59:53.569Z,98235.73
2023-04-21T15:02:24.684Z,98234.95
2023-04-21T15:04:54.513Z,98231.17
2023-04-21T15:07:25.101Z,98231.84
2023-04-21T15:09:56.064Z,98235.81
2023-04-21T15:12:26.027Z,98233.64
2023-04-21T15:14:55.410Z,98236.70
2023-04-21T15:17:25.788Z,98235.61
2023-04-21T15:19:55.583Z,98232.33
2023-04-21T15:22:25.495Z,98235.14
2023-04-21T15:24:55.839Z,98237.18
2023-04-21T15:27:25.564Z,98228.63
2023-04-21T15:29:55.056Z,98229.54
2023-04-21T15:32:25.436Z,98229.55
2023-04-21T15:34:54.948Z,98232.90
2023-04-21T15:37:25.775Z,98232.27
2023-04-21T15:39:55.923Z,98228.60
2023-04-21T15:42:25.663Z,98232.92
2023-04-21T15:44:56.169Z,98240.52
2023-04-21T15:47:27.311Z,98240.83
2023-04-21T15:49:58.109Z,98249.02
2023-04-21T15:52:29.832Z,98250.45
2023-04-21T15:54:59.564Z,98252.02
2023-04-21T15:57:30.364Z,98252.12
2023-04-21T15:59:59.830Z,98248.86
2023-04-21T16:02:29.844Z,98248.18
2023-04-21T16:05:00.111Z,98250.31
2023-04-21T16:07:30.274Z,98254.27
2023-04-21T16:09:59.462Z,98258.11
2023-04-21T16:12:29.254Z,98259.16
2023-04-21T16:15:09.400Z,98262.08
2023-04-21T16:17:50.025Z,98268.52
2023-04-21T16:20:19.641Z,98268.48
2023-04-21T16:22:51.603Z,98275.11
2023-04-21T16:25:21.488Z,98272.39
2023-04-21T16:27:51.283Z,98272.69
2023-04-21T16:30:20.828Z,98274.22
2023-04-21T16:32:50.529Z,98277.55
2023-04-21T16:35:20.347Z,98273.96
2023-04-21T16:37:49.705Z,98271.41
2023-04-21T16:40:20.381Z,98271.98
2023-04-21T16:42:50.400Z,98271.02
2023-04-21T16:45:19.795Z,98275.83
2023-04-21T16:47:50.161Z,98276.13
2023-04-21T16:50:19.674Z,98271.60
2023-04-21T16:52:50.427Z,98275.61
2023-04-21T16:55:21.056Z,98278.05
2023-04-21T16:57:51.506Z,98279.80
2023-04-21T17:00:22.029Z,98287.14
2023-04-21T17:02:52.007Z,98293.20
2023-04-21T17:05:21.919Z,98298.00
2023-04-21T17:07:52.592Z,98297.23
2023-04-21T17:10:24.595Z,98302.54
2023-04-21T17:12:55.897Z,98302.70
2023-04-21T17:15:26.438Z,98310.94
2023-04-21T17:17:57.747Z,98308.84
2023-04-21T17:20:29.148Z,98312.17
2023-04-21T17:22:59.626Z,98317.96
2023-04-21T17:25:29.323Z,98317.92
2023-04-21T17:27:59.026Z,98321.63
2023-04-21T17:30:28.270Z,98319.05
2023-04-21T17:33:12.695Z,98331.20
2023-04-21T17:35:59.880Z,98321.39
2023-04-21T17:38:32.961Z,98331.24
2023-04-21T17:41:03.468Z,98329.39
2023-04-21T17:43:33.492Z,98335.79
2023-04-21T17:46:03.030Z,98339.59
2023-04-21T17:48:33.167Z,98343.44
2023-04-21T17:51:02.450Z,98344.47
2023-04-21T17:53:32.102Z,98346.86
2023-04-21T17:56:01.795Z,98349.67
2023-04-21T17:58:31.089Z,98355.68
2023-04-21T18:01:00.080Z,98356.73
2023-04-21T18:03:29.288Z,98357.08
2023-04-21T18:05:59.672Z,98360.05
2023-04-21T18:08:29.358Z,98363.16
2023-04-21T18:10:58.160Z,98359.05
2023-04-21T18:13:27.256Z,98361.05
2023-04-21T18:15:56.601Z,98363.30
2023-04-21T18:18:27.118Z,98370.27
2023-04-21T18:20:56.758Z,98370.25
2023-04-21T18:23:26.397Z,98375.59
2023-04-21T18:25:55.695Z,98377.23
2023-04-21T18:28:25.064Z,98379.67
2023-04-21T18:30:54.697Z,98378.48
2023-04-21T18:33:24.280Z,98378.64
2023-04-21T18:35:54.411Z,98377.35
2023-04-21T18:38:23.663Z,98376.77
2023-04-21T18:40:52.733Z,98377.02
2023-04-21T18:43:22.161Z,98382.92
2023-04-21T18:45:52.102Z,98382.19
2023-04-21T18:48:22.423Z,98387.88
2023-04-21T18:50:51.940Z,98392.66
2023-04-21T18:53:21.029Z,98396.89
2023-04-21T18:55:50.497Z,98392.59
2023-04-21T18:58:20.810Z,98395.87
2023-04-21T19:00:50.509Z,98395.64
2023-04-21T19:03:20.430Z,98401.11
2023-04-21T19:05:50.103Z,98405.54
2023-04-21T19:08:27.044Z,98410.86
2023-04-21T19:11:04.117Z,98405.84
2023-04-21T19:13:33.733Z,98405.89
2023-04-21T19:16:05.706Z,98413.20
2023-04-21T19:18:35.952Z,98423.17
2023-04-21T19:21:06.678Z,98429.08
2023-04-21T19:23:37.222Z,98429.24
2023-04-21T19:26:09.404Z,98431.33
2023-04-21T19:28:41.058Z,98430.69
2023-04-21T19:31:11.148Z,98429.89
2023-04-21T19:33:41.012Z,98436.11
2023-04-21T19:36:10.790Z,98437.67
2023-04-21T19:38:40.024Z,98437.91
2023-04-21T19:41:12.062Z,98440.80
2023-04-21T19:43:43.086Z,98447.95
2023-04-21T19:46:14.959Z,98451.02
2023-04-21T19:48:47.484Z,98458.42
2023-04-21T19:51:16.843Z,98461.98
2023-04-21T19:53:49.501Z,98460.86
2023-04-21T19:56:25.951Z,98458.52
2023-04-21T19:58:55.884Z,98461.77
2023-04-21T20:01:24.887Z,98459.73
2023-04-21T20:03:55.225Z,98459.57
2023-04-21T20:06:26.430Z,98458.11
2023-04-21T20:08:57.676Z,98458.23
2023-04-21T20:11:30.655Z,98459.06
2023-04-21T20:14:01.294Z,98462.91
2023-04-21T20:16:31.332Z,98459.21
2023-04-21T20:19:01.354Z,98459.05
2023-04-21T20:21:33.512Z,98454.21
2023-04-21T20:24:03.856Z,98450.77
2023-04-21T20:26:34.316Z,98450.66
2023-04-21T20:29:07.693Z,98454.39
2023-04-21T20:31:40.674Z,98456.73
2023-04-21T20:34:11.520Z,98461.13
2023-04-21T20:36:42.552Z,98462.06
2023-04-21T20:39:12.760Z,98460.91
2023-04-21T20:41:48.050Z,98457.08
2023-04-21T20:44:23.653Z,98461.31
2023-04-21T20:46:53.656Z,98461.83
2023-04-21T20:49:23.814Z,98463.52
2023-04-21T20:52:01.706Z,98467.70
2023-04-21T20:54:35.474Z,98470.73
2023-04-21T20:57:05.168Z,98472.52
2023-04-21T20:59:35.826Z,98478.02
2023-04-21T21:02:05.721Z,98478.19
2023-04-21T21:04:35.868Z,98479.15
2023-04-21T21:07:05.662Z,98480.42
2023-04-21T21:09:35.607Z,98482.31
2023-04-21T21:12:06.169Z,98485.95
2023-04-21T21:14:36.323Z,98485.78
2023-04-21T21:17:05.757Z,98485.02
2023-04-21T21:19:35.536Z,98485.98
2023-04-21T21:22:05.772Z,98492.16
2023-04-21T21:24:35.628Z,98498.86
2023-04-21T21:27:05.115Z,98502.30
2023-04-21T21:29:34.759Z,98498.98
2023-04-21T21:32:05.210Z,98496.16
2023-04-21T21:34:35.087Z,98499.02
2023-04-21T21:37:04.887Z,98497.17
2023-04-21T21:39:34.102Z,98493.41
2023-04-21T21:42:04.994Z,98490.71
2023-04-21T21:44:34.903Z,98495.15
2023-04-21T21:47:04.058Z,98497.41
2023-04-21T21:49:34.092Z,98494.73
2023-04-21T21:52:04.500Z,98503.17
2023-04-21T21:54:35.591Z,98507.60
2023-04-21T21:57:05.252Z,98510.13
2023-04-21T21:59:35.733Z,98511.63
2023-04-21T22:02:06.772Z,98509.20
2023-04-21T22:04:36.282Z,98510.21
2023-04-21T22:07:05.576Z,98508.98
2023-04-21T22:09:37.304Z,98511.88
2023-04-21T22:12:07.673Z,98507.89
2023-04-21T22:14:37.700Z,98511.42
2023-04-21T22:17:07.136Z,98515.39
2023-04-21T22:19:36.310Z,98520.33
2023-04-21T22:22:05.840Z,98525.64
2023-04-21T22:24:35.425Z,98528.23
2023-04-21T22:27:05.160Z,98532.11
2023-04-21T22:29:34.394Z,98535.71
2023-04-21T22:32:04.264Z,98540.56
2023-04-21T22:34:33.252Z,98542.76
2023-04-21T22:37:02.950Z,98547.29
2023-04-21T22:39:32.353Z,98541.94
2023-04-21T22:42:03.249Z,98544.64
2023-04-21T22:44:32.395Z,98541.94
2023-04-21T22:47:01.942Z,98548.30
2023-04-21T22:49:31.328Z,98547.42
2023-04-21T22:52:01.065Z,98541.60
2023-04-21T22:54:30.607Z,98541.38
2023-04-21T22:56:59.936Z,98544.13
2023-04-21T22:59:30.256Z,98539.23
2023-04-21T23:02:00.316Z,98540.85
2023-04-21T23:04:31.223Z,98542.79
2023-04-21T23:06:59.822Z,98545.11
2023-04-21T23:09:28.910Z,98547.13
2023-04-21T23:11:58.027Z,98553.31
2023-04-21T23:14:27.128Z,98554.70
2023-04-21T23:16:56.389Z,98555.67
2023-04-21T23:19:25.216Z,98555.35
2023-04-21T23:21:54.480Z,98553.69
2023-04-21T23:24:23.854Z,98550.20
2023-04-21T23:26:52.971Z,98547.70
2023-04-21T23:29:22.065Z,98545.92
2023-04-21T23:31:51.410Z,98543.54
2023-04-21T23:34:20.624Z,98541.56
2023-04-21T23:36:49.891Z,98542.10
2023-04-21T23:39:21.681Z,98542.12
2023-04-21T23:41:50.771Z,98535.88
2023-04-21T23:44:20.179Z,98538.63
2023-04-21T23:46:49.640Z,98539.92
2023-04-21T23:49:19.029Z,98539.48
2023-04-21T23:51:49.113Z,98536.59
2023-04-21T23:54:18.385Z,98536.61
2023-04-21T23:56:47.762Z,98540.31
2023-04-21T23:59:16.891Z,98543.84
